< < Back
Terminal Aerodrome Forecast


Current Version              Previous Versions:   1  2  3  4  5  6  7  8  9  

Terminal Aerodrome Forecast

475
FTUS42 KTAE 280520
TAFTLH
TAF
KTLH 280520Z 2806/2906 09004KT P6SM SCT070 SCT200
     FM281500 07006KT P6SM SCT060 SCT150 BKN200
     FM282200 24005KT P6SM VCSH BKN060 OVC150
     FM290200 00000KT P6SM SCT060 BKN150=



Latest METAR

289
SAUS80 KWBC 280700 RRE
MTRTLH
METAR KTLH 280753Z AUTO 10005KT 10SM CLR 22/19 A3002 RMK AO2 SLP163
T02220189


USA.gov is the U.S. government's official web portal to all federal, state and local government web resources and services.